Terminal Aerodrome Forecast
Issued by NWS

Home | Current Version | Previous Version | Text Only | Print | Product List | Glossary Off
Versions: 1 2 3 4 5 6 7 8 9 10 11 12 13 14 15 16 17 18 19

000
FTUS42 KMHX 222300
TAFOAJ
TAF
KOAJ 222340Z 2300/2324 00000KT P6SM BKN120
     FM231000 03005KT P6SM OVC100
     FM231800 07008KT P6SM -RA OVC050
     FM232200 08010KT 2SM RA BR SCT007 OVC015
      AMD LTD TO CLD VIS AND WIND=

USA.gov is the U.S. government's official web portal to all federal, state and local government web resources and services.